createdAt,value
2023-12-03T06:30:31.186Z,32.10
2023-12-03T06:33:23.398Z,36.30
2023-12-03T06:37:22.922Z,33.60
2023-12-03T06:41:03.523Z,34.20
2023-12-03T06:44:31.070Z,32.20
2023-12-03T06:47:06.926Z,38.70
2023-12-03T06:49:35.112Z,38.10
2023-12-03T06:52:03.537Z,39.30
2023-12-03T06:54:31.585Z,37.40
2023-12-03T06:56:59.548Z,42.00
2023-12-03T06:59:27.557Z,40.90
2023-12-03T07:02:24.140Z,39.50
2023-12-03T07:04:52.377Z,37.20
2023-12-03T07:09:39.756Z,35.00
2023-12-03T07:13:20.940Z,34.80
2023-12-03T07:17:02.278Z,34.40
2023-12-03T07:21:02.453Z,38.60
2023-12-03T07:23:29.908Z,38.00
2023-12-03T07:25:59.194Z,40.50
2023-12-03T07:28:26.412Z,39.50
2023-12-03T07:30:53.384Z,41.60
2023-12-03T07:33:20.695Z,37.80
2023-12-03T07:35:48.596Z,44.70
2023-12-03T07:38:15.583Z,41.30
2023-12-03T07:40:44.581Z,43.10
2023-12-03T07:43:14.094Z,40.50
2023-12-03T07:45:41.158Z,40.70
2023-12-03T07:48:10.136Z,38.70
2023-12-03T07:50:40.692Z,37.20
2023-12-03T07:53:09.151Z,38.70
2023-12-03T07:55:36.111Z,38.20
2023-12-03T07:58:39.701Z,32.40
2023-12-03T08:02:21.177Z,32.60
2023-12-03T08:06:17.951Z,32.20
2023-12-03T08:09:38.760Z,34.60
2023-12-03T08:13:31.985Z,31.40
2023-12-03T08:16:05.607Z,34.30
2023-12-03T08:18:34.914Z,36.30
2023-12-03T08:21:05.562Z,36.50
2023-12-03T08:23:37.911Z,33.30
2023-12-03T08:26:12.025Z,36.20
2023-12-03T08:29:34.927Z,32.30
2023-12-03T08:43:55.069Z,26.90
2023-12-03T08:47:02.382Z,29.10
2023-12-03T08:50:36.536Z,28.60
2023-12-03T08:54:00.799Z,29.50
2023-12-03T09:39:11.777Z,39.90
2023-12-03T09:47:18.310Z,35.50
2023-12-03T10:02:21.861Z,26.50
2023-12-03T10:11:20.205Z,30.00
2023-12-03T10:23:49.260Z,27.50
2023-12-03T10:31:31.097Z,33.20
2023-12-03T10:38:25.218Z,36.40
2023-12-03T10:43:32.619Z,36.90
2023-12-03T10:50:12.144Z,34.70
2023-12-03T10:58:09.229Z,32.80
2023-12-03T11:01:58.456Z,33.60
2023-12-03T11:22:32.837Z,41.80
2023-12-03T11:29:46.085Z,36.50
2023-12-03T11:38:26.485Z,36.20
2023-12-03T11:42:36.279Z,35.20
2023-12-03T11:50:41.044Z,36.10
2023-12-03T11:57:14.345Z,38.00
2023-12-03T12:12:17.972Z,32.30
2023-12-03T12:16:33.098Z,34.90
2023-12-03T12:20:45.283Z,37.60
2023-12-03T12:32:32.438Z,35.30
2023-12-03T12:36:42.556Z,38.30
2023-12-03T12:40:59.402Z,32.50
2023-12-03T12:44:46.903Z,35.60
2023-12-03T12:49:05.784Z,35.90
2023-12-03T12:58:17.504Z,36.60
2023-12-03T13:44:41.061Z,15.30
2023-12-03T13:48:23.998Z,14.60
2023-12-03T13:50:54.842Z,16.00
2023-12-03T13:53:29.878Z,17.20
2023-12-03T14:00:37.088Z,10.80
2023-12-03T14:09:06.818Z,11.90
2023-12-03T14:23:04.426Z,12.00
2023-12-03T14:27:47.271Z,10.80
2023-12-03T15:42:00.729Z,16.40
2023-12-03T16:05:33.874Z,18.20
2023-12-03T16:09:20.915Z,14.80
2023-12-03T16:25:08.748Z,19.90
2023-12-03T16:41:30.121Z,21.80
2023-12-03T16:49:37.944Z,20.60
2023-12-03T16:57:34.244Z,21.40
2023-12-03T17:01:20.132Z,26.40
2023-12-03T17:10:44.288Z,21.70
2023-12-03T17:14:12.372Z,22.20
2023-12-03T17:17:01.343Z,23.20
2023-12-03T17:22:57.566Z,23.00
2023-12-03T17:25:27.111Z,24.70
2023-12-03T17:28:37.538Z,24.40
2023-12-03T17:31:46.358Z,24.50
2023-12-03T17:35:02.392Z,23.30
2023-12-03T17:42:58.197Z,23.40
2023-12-03T17:46:17.802Z,22.30
2023-12-03T17:49:34.692Z,24.30
2023-12-03T17:57:05.308Z,23.60
2023-12-03T18:11:45.330Z,21.60
2023-12-03T18:15:47.363Z,21.10
2023-12-03T18:19:57.365Z,20.40
2023-12-03T18:24:16.818Z,26.10
2023-12-03T18:34:46.052Z,22.90
2023-12-03T18:37:57.396Z,19.90
2023-12-03T18:43:26.027Z,20.20
2023-12-03T18:46:20.146Z,21.80
2023-12-03T18:48:48.960Z,21.60
2023-12-03T18:51:17.492Z,21.90
2023-12-03T18:53:45.695Z,21.60
2023-12-03T18:56:13.714Z,20.60
2023-12-03T18:58:53.712Z,19.60
2023-12-03T19:01:41.996Z,21.10
2023-12-03T19:04:10.092Z,20.60
2023-12-03T19:06:38.380Z,20.40
2023-12-03T19:09:08.057Z,21.10
2023-12-03T19:11:36.091Z,20.40
2023-12-03T19:14:04.470Z,21.30
2023-12-03T19:16:32.668Z,21.50
2023-12-03T19:19:03.141Z,21.50
2023-12-03T19:21:31.104Z,20.70
2023-12-03T19:24:01.413Z,21.40
2023-12-03T19:26:29.837Z,22.40
2023-12-03T19:28:59.402Z,21.50
2023-12-03T19:31:27.433Z,22.00
2023-12-03T19:33:56.106Z,21.30
2023-12-03T19:36:24.906Z,22.90
2023-12-03T19:38:53.460Z,21.50
2023-12-03T19:41:21.398Z,21.20
2023-12-03T19:43:49.235Z,21.30
2023-12-03T19:46:17.145Z,20.30
2023-12-03T19:48:46.274Z,19.70
2023-12-03T19:51:14.302Z,20.40
2023-12-03T19:53:47.411Z,21.00
2023-12-03T19:56:15.362Z,19.80
2023-12-03T19:58:44.007Z,19.10
2023-12-03T20:01:32.003Z,20.60
2023-12-03T20:04:00.520Z,19.10
2023-12-03T20:06:28.604Z,18.90
2023-12-03T20:08:56.914Z,19.90
2023-12-03T20:11:24.929Z,19.10
2023-12-03T20:13:52.995Z,20.60
2023-12-03T20:16:21.128Z,18.50
2023-12-03T20:18:49.646Z,20.50
2023-12-03T20:21:19.599Z,19.40
2023-12-03T20:23:50.489Z,18.60
2023-12-03T20:26:22.201Z,18.40
2023-12-03T20:28:50.716Z,19.30
2023-12-03T20:31:27.308Z,19.30
2023-12-03T20:33:55.705Z,18.50
2023-12-03T20:36:25.889Z,20.60
2023-12-03T20:38:56.156Z,18.80
2023-12-03T20:41:24.995Z,19.20
2023-12-03T20:43:54.007Z,19.40
2023-12-03T20:46:22.931Z,19.60
2023-12-03T20:48:51.085Z,20.40
2023-12-03T20:51:19.426Z,19.30
2023-12-03T20:53:47.450Z,19.30
2023-12-03T20:56:15.834Z,19.20
2023-12-03T20:58:44.860Z,18.80
2023-12-03T21:01:13.540Z,20.30
2023-12-03T21:03:42.432Z,20.70
2023-12-03T21:06:11.703Z,22.00
2023-12-03T21:08:39.924Z,20.30
2023-12-03T21:11:08.186Z,22.40
2023-12-03T21:13:38.113Z,24.30
2023-12-03T21:16:07.457Z,20.90
2023-12-03T21:18:35.413Z,19.80
2023-12-03T21:21:03.633Z,21.00
2023-12-03T21:23:31.990Z,22.10
2023-12-03T21:25:59.922Z,21.70
2023-12-03T21:28:27.817Z,21.80
2023-12-03T21:30:56.427Z,22.30
2023-12-03T21:33:25.026Z,20.20
2023-12-03T21:35:58.025Z,20.90
2023-12-03T21:38:28.124Z,19.70
2023-12-03T21:40:57.058Z,21.60
2023-12-03T21:43:26.108Z,21.80
2023-12-03T21:45:56.370Z,21.60
2023-12-03T21:48:25.464Z,20.90
2023-12-03T21:51:39.897Z,21.70
2023-12-03T21:54:21.615Z,23.00
2023-12-03T21:56:50.027Z,21.00
2023-12-03T21:59:18.660Z,20.50
2023-12-03T22:01:46.656Z,22.60
2023-12-03T22:04:15.815Z,22.20
2023-12-03T22:06:43.769Z,21.60
2023-12-03T22:09:16.454Z,21.30
2023-12-03T22:11:45.679Z,21.20
2023-12-03T22:14:17.522Z,22.20
2023-12-03T22:16:45.467Z,23.50
2023-12-03T22:19:14.092Z,23.30
2023-12-03T22:21:42.227Z,22.90
2023-12-03T22:24:10.970Z,22.50
2023-12-03T22:26:39.417Z,22.00
2023-12-03T22:29:07.588Z,24.10
2023-12-03T22:31:38.832Z,22.70
2023-12-03T22:34:07.703Z,22.50
2023-12-03T22:36:35.853Z,24.20
2023-12-03T22:39:04.004Z,26.00
2023-12-03T22:41:32.105Z,23.00
2023-12-03T22:44:00.693Z,22.30
2023-12-03T22:46:29.526Z,22.10
2023-12-03T22:48:58.959Z,24.60
2023-12-03T22:51:27.933Z,24.90
2023-12-03T22:53:56.270Z,24.00
2023-12-03T22:56:24.849Z,25.00
2023-12-03T22:58:53.658Z,23.10
2023-12-03T23:01:21.561Z,24.30
2023-12-03T23:03:49.471Z,23.10
2023-12-03T23:06:17.461Z,24.70
2023-12-03T23:08:45.334Z,24.30
2023-12-03T23:11:13.398Z,25.00
2023-12-03T23:13:41.351Z,25.80
2023-12-03T23:16:10.973Z,25.10
2023-12-03T23:18:39.091Z,25.30
2023-12-03T23:21:07.279Z,25.40
2023-12-03T23:23:35.163Z,25.50
2023-12-03T23:26:03.032Z,25.60
2023-12-03T23:28:31.044Z,26.00
2023-12-03T23:30:59.785Z,26.70
2023-12-03T23:33:30.505Z,25.60
2023-12-03T23:35:58.514Z,28.20
2023-12-03T23:38:26.594Z,27.60
2023-12-03T23:40:54.522Z,26.40
2023-12-03T23:43:22.527Z,26.90
2023-12-03T23:45:50.495Z,27.20
2023-12-03T23:48:18.694Z,28.30
2023-12-03T23:50:46.654Z,29.40
2023-12-03T23:53:14.789Z,29.00
2023-12-03T23:55:45.351Z,28.60
2023-12-03T23:58:50.615Z,24.60
